createdAt,value
2019-03-28T00:00:13.835Z,0
2019-03-28T00:01:13.846Z,0
2019-03-28T00:02:14.297Z,0
2019-03-28T00:03:14.147Z,0
2019-03-28T00:04:13.652Z,0
2019-03-28T00:05:14.399Z,0
2019-03-28T00:06:14.205Z,0
2019-03-28T00:07:14.225Z,0
2019-03-28T00:08:17.217Z,0
2019-03-28T00:09:14.945Z,0
2019-03-28T00:10:14.688Z,0
2019-03-28T00:11:14.036Z,0
2019-03-28T00:12:15.099Z,0
2019-03-28T00:13:14.072Z,0
2019-03-28T00:14:14.086Z,0
2019-03-28T00:15:15.265Z,0
2019-03-28T00:16:14.396Z,0
2019-03-28T00:17:14.775Z,0
2019-03-28T00:18:14.428Z,0
2019-03-28T00:19:14.707Z,0
2019-03-28T00:20:16.383Z,0
2019-03-28T00:21:14.222Z,0
2019-03-28T00:22:14.242Z,0
2019-03-28T00:23:14.265Z,0
2019-03-28T00:24:14.542Z,0
2019-03-28T00:25:15.149Z,0
2019-03-28T00:26:14.582Z,0
2019-03-28T00:27:14.331Z,0
2019-03-28T00:28:14.902Z,0
2019-03-28T00:29:14.379Z,0
2019-03-28T00:30:14.414Z,0
2019-03-28T00:31:14.411Z,0
2019-03-28T00:32:14.700Z,0
2019-03-28T00:33:14.973Z,0
2019-03-28T00:34:14.831Z,0
2019-03-28T00:35:14.493Z,0
2019-03-28T00:36:14.514Z,0
2019-03-28T00:37:15.627Z,0
2019-03-28T00:38:14.799Z,0
2019-03-28T00:39:15.204Z,0
2019-03-28T00:40:15.100Z,0
2019-03-28T00:41:14.595Z,0
2019-03-28T00:42:14.963Z,0
2019-03-28T00:43:14.367Z,0
2019-03-28T00:44:14.649Z,0
2019-03-28T00:45:15.193Z,0
2019-03-28T00:46:14.955Z,0
2019-03-28T00:47:15.691Z,0
2019-03-28T00:48:14.728Z,0
2019-03-28T00:49:14.748Z,0
2019-03-28T00:50:15.133Z,0
2019-03-28T00:51:15.053Z,0
2019-03-28T00:52:16.160Z,0
2019-03-28T00:53:14.564Z,0
2019-03-28T00:54:15.114Z,0
2019-03-28T00:55:14.698Z,0
2019-03-28T00:56:15.407Z,0
2019-03-28T00:57:15.164Z,0
2019-03-28T00:58:14.911Z,0
2019-03-28T00:59:14.675Z,0
2019-03-28T01:00:14.951Z,0
2019-03-28T01:01:14.972Z,0
2019-03-28T01:02:15.248Z,0
2019-03-28T01:03:15.789Z,0
2019-03-28T01:04:15.288Z,0
2019-03-28T01:05:15.570Z,0
2019-03-28T01:06:15.327Z,0
2019-03-28T01:07:15.339Z,0
2019-03-28T01:08:15.099Z,0
2019-03-28T01:09:15.131Z,0
2019-03-28T01:10:15.402Z,0
2019-03-28T01:11:15.421Z,0
2019-03-28T01:12:15.454Z,0
2019-03-28T01:13:15.462Z,0
2019-03-28T01:14:15.746Z,0
2019-03-28T01:15:15.492Z,0
2019-03-28T01:16:15.513Z,0
2019-03-28T01:17:15.276Z,0
2019-03-28T01:18:15.284Z,0
2019-03-28T01:19:15.306Z,0
2019-03-28T01:20:15.848Z,0
2019-03-28T01:21:16.269Z,0
2019-03-28T01:22:15.622Z,0
2019-03-28T01:23:15.899Z,0
2019-03-28T01:24:15.825Z,0
2019-03-28T01:25:15.947Z,0
2019-03-28T01:26:15.190Z,0
2019-03-28T01:27:15.712Z,0
2019-03-28T01:28:15.209Z,0
2019-03-28T01:29:15.756Z,0
2019-03-28T01:30:16.033Z,0
2019-03-28T01:31:15.527Z,0
2019-03-28T01:32:15.548Z,0
2019-03-28T01:33:15.300Z,0
2019-03-28T01:34:15.844Z,0
2019-03-28T01:35:15.338Z,0
2019-03-28T01:36:16.145Z,0
2019-03-28T01:37:15.670Z,0
2019-03-28T01:38:15.928Z,0
2019-03-28T01:39:15.421Z,0
2019-03-28T01:40:15.429Z,0
2019-03-28T01:41:16.283Z,0
2019-03-28T01:42:15.995Z,0
2019-03-28T01:43:16.014Z,0
2019-03-28T01:44:16.032Z,0
2019-03-28T01:45:15.790Z,0
2019-03-28T01:46:15.806Z,0
2019-03-28T01:47:16.087Z,0
2019-03-28T01:48:16.108Z,0
2019-03-28T01:49:15.874Z,0
2019-03-28T01:50:16.406Z,0
2019-03-28T01:51:15.653Z,0
2019-03-28T01:52:16.201Z,0
2019-03-28T01:53:17.168Z,0
2019-03-28T01:54:15.956Z,0
2019-03-28T01:55:16.499Z,0
2019-03-28T01:56:16.002Z,0
2019-03-28T01:57:18.569Z,0
2019-03-28T01:58:16.291Z,0
2019-03-28T01:59:16.358Z,0
2019-03-28T02:00:17.023Z,0
2019-03-28T02:01:16.086Z,0
2019-03-28T02:02:16.368Z,0
2019-03-28T02:03:16.123Z,0
2019-03-28T02:04:16.152Z,0
2019-03-28T02:05:15.895Z,0
2019-03-28T02:06:15.915Z,0
2019-03-28T02:07:16.196Z,0
2019-03-28T02:08:16.482Z,0
2019-03-28T02:09:16.237Z,0
2019-03-28T02:10:16.512Z,0
2019-03-28T02:11:16.011Z,0
2019-03-28T02:12:16.556Z,0
2019-03-28T02:13:16.310Z,0
2019-03-28T02:14:17.276Z,0
2019-03-28T02:15:16.354Z,0
2019-03-28T02:16:16.102Z,0
2019-03-28T02:17:17.138Z,0
2019-03-28T02:18:16.662Z,0
2019-03-28T02:19:16.684Z,0
2019-03-28T02:20:17.135Z,0
2019-03-28T02:21:16.787Z,0
2019-03-28T02:22:16.746Z,0
2019-03-28T02:23:17.439Z,0
2019-03-28T02:24:16.514Z,0
2019-03-28T02:25:16.835Z,0
2019-03-28T02:26:17.073Z,0
2019-03-28T02:27:28.648Z,0
2019-03-28T02:28:17.134Z,0
2019-03-28T02:29:17.136Z,0
2019-03-28T02:30:16.381Z,0
2019-03-28T02:31:17.068Z,0
2019-03-28T02:32:16.417Z,0
2019-03-28T02:33:16.684Z,0
2019-03-28T02:34:16.466Z,0
2019-03-28T02:35:16.729Z,0
2019-03-28T02:36:16.826Z,0
2019-03-28T02:37:17.053Z,0
2019-03-28T02:38:17.061Z,0
2019-03-28T02:39:17.059Z,0
2019-03-28T02:40:17.114Z,0
2019-03-28T02:41:17.123Z,0
2019-03-28T02:42:16.596Z,0
2019-03-28T02:43:17.266Z,0
2019-03-28T02:44:17.557Z,0
2019-03-28T02:45:17.181Z,0
2019-03-28T02:46:16.670Z,0
2019-03-28T02:47:17.190Z,0
2019-03-28T02:48:16.971Z,0
2019-03-28T02:49:16.729Z,0
2019-03-28T02:50:18.171Z,0
2019-03-28T02:51:17.556Z,0
2019-03-28T02:52:17.334Z,0
2019-03-28T02:53:18.298Z,0
2019-03-28T02:54:17.335Z,0
2019-03-28T02:55:17.103Z,0
2019-03-28T02:56:18.356Z,0
2019-03-28T02:57:16.871Z,0
2019-03-28T02:58:17.906Z,0
2019-03-28T02:59:16.914Z,0
2019-03-28T03:00:17.467Z,0
2019-03-28T03:01:17.736Z,0
2019-03-28T03:02:17.230Z,0
2019-03-28T03:03:17.250Z,0
2019-03-28T03:04:17.285Z,0
2019-03-28T03:05:17.878Z,0
2019-03-28T03:06:17.039Z,0
2019-03-28T03:07:17.627Z,0
2019-03-28T03:08:17.342Z,0
2019-03-28T03:09:17.885Z,0
2019-03-28T03:10:17.641Z,0
2019-03-28T03:11:17.672Z,0
2019-03-28T03:12:17.944Z,0
2019-03-28T03:13:17.174Z,0
2019-03-28T03:14:19.037Z,0
2019-03-28T03:15:17.742Z,0
2019-03-28T03:16:18.013Z,0
2019-03-28T03:17:18.568Z,0
2019-03-28T03:18:21.155Z,0
2019-03-28T03:19:17.557Z,0
2019-03-28T03:20:17.826Z,0
2019-03-28T03:21:17.319Z,0
2019-03-28T03:22:18.134Z,0
2019-03-28T03:23:17.621Z,0
2019-03-28T03:24:17.902Z,0
2019-03-28T03:25:17.915Z,0
2019-03-28T03:26:18.202Z,0
2019-03-28T03:27:17.430Z,0
2019-03-28T03:28:17.448Z,0
2019-03-28T03:29:18.255Z,0
2019-03-28T03:30:18.302Z,0
2019-03-28T03:31:24.829Z,0
2019-03-28T03:32:17.533Z,0
2019-03-28T03:33:17.570Z,0
2019-03-28T03:34:17.618Z,0
2019-03-28T03:35:18.385Z,0
2019-03-28T03:36:18.134Z,0
2019-03-28T03:37:18.134Z,0
2019-03-28T03:38:17.889Z,0
2019-03-28T03:39:18.454Z,0
2019-03-28T03:40:17.924Z,0
2019-03-28T03:41:18.473Z,0
2019-03-28T03:42:17.702Z,0
2019-03-28T03:43:18.506Z,0
2019-03-28T03:44:18.561Z,0
2019-03-28T03:45:18.043Z,0
2019-03-28T03:46:18.034Z,0
2019-03-28T03:47:18.074Z,0
2019-03-28T03:48:19.019Z,0
2019-03-28T03:49:18.780Z,0
2019-03-28T03:50:18.380Z,0
2019-03-28T03:51:18.999Z,0
2019-03-28T03:52:18.418Z,0
2019-03-28T03:53:18.429Z,0
2019-03-28T03:54:18.753Z,0
2019-03-28T03:55:18.218Z,0
2019-03-28T03:56:18.764Z,0
2019-03-28T03:57:18.771Z,0
2019-03-28T03:58:23.847Z,0
2019-03-28T03:59:18.848Z,0
2019-03-28T04:00:18.830Z,0
2019-03-28T04:01:18.715Z,0
2019-03-28T04:02:18.339Z,0
2019-03-28T04:03:18.650Z,0
2019-03-28T04:04:18.663Z,0
2019-03-28T04:05:19.729Z,0
2019-03-28T04:06:18.417Z,0
2019-03-28T04:07:18.436Z,0
2019-03-28T04:08:18.450Z,0
2019-03-28T04:09:19.007Z,0
2019-03-28T04:10:18.754Z,0
2019-03-28T04:11:18.799Z,0
2019-03-28T04:12:18.802Z,0
2019-03-28T04:13:19.075Z,0
2019-03-28T04:14:18.308Z,0
2019-03-28T04:15:18.586Z,0
2019-03-28T04:16:18.867Z,0
2019-03-28T04:17:18.609Z,0
2019-03-28T04:18:21.983Z,0
2019-03-28T04:19:18.661Z,0
2019-03-28T04:20:18.934Z,0
2019-03-28T04:21:19.839Z,0
2019-03-28T04:22:18.459Z,0
2019-03-28T04:23:19.295Z,0
2019-03-28T04:24:18.741Z,0
2019-03-28T04:25:18.768Z,0
2019-03-28T04:26:18.519Z,0
2019-03-28T04:27:18.950Z,0
2019-03-28T04:28:35.063Z,0
2019-03-28T04:29:19.096Z,0
2019-03-28T04:30:19.113Z,0
2019-03-28T04:31:18.897Z,0
2019-03-28T04:32:20.571Z,0
2019-03-28T04:33:19.446Z,0
2019-03-28T04:34:18.943Z,0
2019-03-28T04:35:18.949Z,0
2019-03-28T04:36:19.358Z,0
2019-03-28T04:37:19.256Z,0
2019-03-28T04:38:19.529Z,0
2019-03-28T04:39:19.026Z,0
2019-03-28T04:40:18.784Z,0
2019-03-28T04:41:19.057Z,0
2019-03-28T04:42:19.600Z,0
2019-03-28T04:43:18.871Z,0
2019-03-28T04:44:18.854Z,0
2019-03-28T04:45:19.140Z,0
2019-03-28T04:46:19.406Z,0
2019-03-28T04:47:18.897Z,0
2019-03-28T04:48:19.456Z,4
2019-03-28T04:49:22.990Z,4
2019-03-28T04:50:19.218Z,0
2019-03-28T04:51:19.589Z,4
2019-03-28T04:52:19.406Z,4
2019-03-28T04:53:19.016Z,4
2019-03-28T04:54:19.034Z,4
2019-03-28T04:55:19.320Z,4
2019-03-28T04:56:19.394Z,8
2019-03-28T04:57:19.354Z,8
2019-03-28T04:58:21.658Z,8
2019-03-28T04:59:20.075Z,12
2019-03-28T05:00:19.676Z,12
2019-03-28T05:01:19.428Z,16
2019-03-28T05:02:19.445Z,20
2019-03-28T05:03:19.469Z,16
2019-03-28T05:04:21.162Z,20
2019-03-28T05:05:19.267Z,28
2019-03-28T05:06:20.037Z,28
2019-03-28T05:07:19.549Z,32
2019-03-28T05:08:19.288Z,40
2019-03-28T05:09:19.578Z,40
2019-03-28T05:10:20.046Z,44
2019-03-28T05:11:19.878Z,52
2019-03-28T05:12:19.629Z,56
2019-03-28T05:13:20.320Z,60
2019-03-28T05:14:19.926Z,64
2019-03-28T05:15:22.893Z,72
2019-03-28T05:16:19.697Z,76
2019-03-28T05:17:19.981Z,84
2019-03-28T05:18:20.267Z,88
2019-03-28T05:19:20.017Z,92
2019-03-28T05:20:20.441Z,104
2019-03-28T05:21:19.791Z,108
2019-03-28T05:22:19.815Z,116
2019-03-28T05:23:19.830Z,120
2019-03-28T05:24:19.583Z,128
2019-03-28T05:25:20.394Z,136
2019-03-28T05:26:19.954Z,144
2019-03-28T05:27:21.111Z,152
2019-03-28T05:28:19.663Z,164
2019-03-28T05:29:20.465Z,172
2019-03-28T05:30:20.235Z,184
2019-03-28T05:31:20.245Z,196
2019-03-28T05:32:20.010Z,208
2019-03-28T05:33:20.551Z,220
2019-03-28T05:34:20.331Z,232
2019-03-28T05:35:20.058Z,240
2019-03-28T05:36:20.668Z,248
2019-03-28T05:37:19.833Z,260
2019-03-28T05:38:20.113Z,268
2019-03-28T05:39:20.393Z,284
2019-03-28T05:40:22.644Z,296
2019-03-28T05:41:22.068Z,312
2019-03-28T05:42:20.446Z,324
2019-03-28T05:43:20.723Z,336
2019-03-28T05:44:20.232Z,340
2019-03-28T05:45:20.240Z,348
2019-03-28T05:46:20.675Z,352
2019-03-28T05:47:22.047Z,360
2019-03-28T05:48:20.292Z,364
2019-03-28T05:49:20.578Z,364
2019-03-28T05:50:20.334Z,368
2019-03-28T05:51:20.873Z,376
2019-03-28T05:52:20.895Z,384
2019-03-28T05:53:20.743Z,392
2019-03-28T05:54:20.677Z,404
2019-03-28T05:55:20.699Z,412
2019-03-28T05:56:20.180Z,424
2019-03-28T05:57:20.200Z,432
2019-03-28T05:58:20.483Z,440
2019-03-28T05:59:21.914Z,452
2019-03-28T06:00:20.777Z,460
2019-03-28T06:01:20.537Z,476
2019-03-28T06:02:20.563Z,488
2019-03-28T06:03:20.700Z,508
2019-03-28T06:04:20.587Z,524
2019-03-28T06:05:20.615Z,548
2019-03-28T06:06:21.153Z,572
2019-03-28T06:07:20.904Z,596
2019-03-28T06:08:20.668Z,624
2019-03-28T06:09:21.770Z,660
2019-03-28T06:10:23.177Z,692
2019-03-28T06:11:20.978Z,716
2019-03-28T06:12:23.275Z,736
2019-03-28T06:13:21.017Z,752
2019-03-28T06:14:20.806Z,760
2019-03-28T06:15:20.532Z,768
2019-03-28T06:16:21.073Z,772
2019-03-28T06:17:20.841Z,784
2019-03-28T06:18:20.640Z,796
2019-03-28T06:19:20.608Z,816
2019-03-28T06:20:21.156Z,836
2019-03-28T06:21:21.384Z,864
2019-03-28T06:22:20.926Z,884
2019-03-28T06:23:20.953Z,908
2019-03-28T06:24:20.967Z,932
2019-03-28T06:25:22.773Z,952
2019-03-28T06:26:20.750Z,976
2019-03-28T06:27:21.015Z,988
2019-03-28T06:28:21.298Z,996
2019-03-28T06:29:30.491Z,1008
2019-03-28T06:30:21.070Z,1020
2019-03-28T06:31:20.826Z,1044
2019-03-28T06:32:20.925Z,1060
2019-03-28T06:33:21.126Z,1076
2019-03-28T06:34:21.142Z,1088
2019-03-28T06:35:24.415Z,1100
2019-03-28T06:36:21.878Z,1120
2019-03-28T06:37:21.197Z,1144
2019-03-28T06:38:21.220Z,1180
2019-03-28T06:39:21.763Z,1216
2019-03-28T06:40:20.992Z,1252
2019-03-28T06:41:21.277Z,1288
2019-03-28T06:42:21.821Z,1316
2019-03-28T06:43:21.055Z,1344
2019-03-28T06:44:21.593Z,1376
2019-03-28T06:45:21.618Z,1416
2019-03-28T06:46:21.370Z,1464
2019-03-28T06:47:23.585Z,1516
2019-03-28T06:48:21.665Z,1552
2019-03-28T06:49:21.422Z,1560
2019-03-28T06:50:21.706Z,1552
2019-03-28T06:51:21.190Z,1560
2019-03-28T06:52:21.741Z,1568
2019-03-28T06:53:21.504Z,1576
2019-03-28T06:54:24.132Z,1592
2019-03-28T06:55:23.949Z,1628
2019-03-28T06:56:25.312Z,1636
2019-03-28T06:57:23.636Z,1676
2019-03-28T06:58:21.334Z,1724
2019-03-28T06:59:21.608Z,1768
2019-03-28T07:00:21.381Z,1804
2019-03-28T07:01:21.650Z,1840
2019-03-28T07:02:24.204Z,1864
2019-03-28T07:03:21.680Z,1876
2019-03-28T07:04:21.449Z,1896
2019-03-28T07:05:22.247Z,1904
2019-03-28T07:06:21.742Z,1912
2019-03-28T07:07:25.434Z,1912
2019-03-28T07:08:21.520Z,1916
2019-03-28T07:09:22.937Z,1924
2019-03-28T07:10:21.563Z,1940
2019-03-28T07:11:21.844Z,1932
2019-03-28T07:12:21.591Z,1936
2019-03-28T07:13:22.136Z,1940
2019-03-28T07:14:21.630Z,1944
2019-03-28T07:15:22.881Z,1964
2019-03-28T07:16:23.351Z,1956
2019-03-28T07:17:22.217Z,1948
2019-03-28T07:18:22.226Z,1956
2019-03-28T07:19:21.998Z,1992
2019-03-28T07:20:22.270Z,1976
2019-03-28T07:21:22.899Z,2008
2019-03-28T07:22:22.565Z,2068
2019-03-28T07:23:22.060Z,2128
2019-03-28T07:24:22.344Z,2180
2019-03-28T07:25:25.388Z,2184
2019-03-28T07:26:22.116Z,2144
2019-03-28T07:27:22.135Z,2096
2019-03-28T07:28:22.166Z,2060
2019-03-28T07:29:22.444Z,2072
2019-03-28T07:30:22.196Z,2104
2019-03-28T07:31:22.473Z,2152
2019-03-28T07:32:22.493Z,2200
2019-03-28T07:33:22.518Z,2256
2019-03-28T07:34:22.571Z,2332
2019-03-28T07:35:22.031Z,2424
2019-03-28T07:36:22.309Z,2556
2019-03-28T07:37:22.341Z,2756
2019-03-28T07:38:22.355Z,2964
2019-03-28T07:39:26.059Z,3124
2019-03-28T07:40:22.397Z,3204
2019-03-28T07:41:23.521Z,3168
2019-03-28T07:42:22.419Z,3060
2019-03-28T07:43:25.044Z,2908
2019-03-28T07:44:22.209Z,2740
2019-03-28T07:45:22.743Z,2624
2019-03-28T07:46:22.754Z,2520
2019-03-28T07:47:22.516Z,2528
2019-03-28T07:48:22.917Z,2628
2019-03-28T07:49:22.375Z,2752
2019-03-28T07:50:22.840Z,2864
2019-03-28T07:51:22.587Z,2952
2019-03-28T07:52:25.119Z,3128
2019-03-28T07:53:24.269Z,3368
2019-03-28T07:54:22.646Z,3376
2019-03-28T07:55:23.498Z,3636
2019-03-28T07:56:23.322Z,3552
2019-03-28T07:57:22.738Z,3648
2019-03-28T07:58:22.984Z,3236
2019-03-28T07:59:23.004Z,3032
2019-03-28T08:00:23.027Z,2860
2019-03-28T08:01:24.933Z,2836
2019-03-28T08:02:23.062Z,2552
2019-03-28T08:03:23.084Z,2508
2019-03-28T08:04:23.362Z,2428
2019-03-28T08:05:22.856Z,2464
2019-03-28T08:06:23.276Z,2472
2019-03-28T08:07:23.164Z,2384
2019-03-28T08:08:23.178Z,2212
2019-03-28T08:09:35.972Z,2112
2019-03-28T08:10:23.593Z,2108
2019-03-28T08:11:23.462Z,2252
2019-03-28T08:12:30.540Z,2448
2019-03-28T08:13:23.280Z,2504
2019-03-28T08:14:22.773Z,2472
2019-03-28T08:15:23.052Z,2448
2019-03-28T08:16:22.810Z,2280
2019-03-28T08:17:23.092Z,2120
2019-03-28T08:18:26.073Z,1940
2019-03-28T08:19:23.128Z,1884
2019-03-28T08:20:23.430Z,1876
2019-03-28T08:21:23.429Z,2072
2019-03-28T08:22:23.723Z,2048
2019-03-28T08:23:23.207Z,2288
2019-03-28T08:24:23.486Z,2460
2019-03-28T08:25:23.243Z,2256
2019-03-28T08:26:23.259Z,2464
2019-03-28T08:27:23.332Z,2496
2019-03-28T08:28:23.575Z,2616
2019-03-28T08:29:23.334Z,2356
2019-03-28T08:30:26.190Z,2244
2019-03-28T08:31:23.643Z,2624
2019-03-28T08:32:23.384Z,3096
2019-03-28T08:33:23.661Z,3952
2019-03-28T08:34:23.710Z,4160
2019-03-28T08:35:23.714Z,3828
2019-03-28T08:36:23.993Z,3276
2019-03-28T08:37:23.243Z,3336
2019-03-28T08:38:23.230Z,3764
2019-03-28T08:39:23.775Z,3768
2019-03-28T08:40:23.609Z,3548
2019-03-28T08:41:24.055Z,3552
2019-03-28T08:42:24.141Z,2932
2019-03-28T08:43:23.593Z,2776
2019-03-28T08:44:27.562Z,2812
2019-03-28T08:45:23.895Z,2728
2019-03-28T08:46:23.651Z,2452
2019-03-28T08:47:23.670Z,2696
2019-03-28T08:48:23.955Z,2332
2019-03-28T08:49:23.721Z,2088
2019-03-28T08:50:23.722Z,2016
2019-03-28T08:51:27.209Z,2072
2019-03-28T08:52:24.038Z,2288
2019-03-28T08:53:23.784Z,2440
2019-03-28T08:54:23.551Z,2688
2019-03-28T08:55:24.087Z,2704
2019-03-28T08:56:24.203Z,2824
2019-03-28T08:57:23.918Z,2812
2019-03-28T08:58:23.890Z,2928
2019-03-28T08:59:23.905Z,2816
2019-03-28T09:00:54.137Z,3500
2019-03-28T09:01:24.213Z,3500
2019-03-28T09:02:24.224Z,3228
2019-03-28T09:03:23.984Z,3024
2019-03-28T09:04:23.749Z,3136
2019-03-28T09:05:24.549Z,3104
2019-03-28T09:06:24.333Z,2644
2019-03-28T09:07:24.699Z,2376
2019-03-28T09:08:23.818Z,2356
2019-03-28T09:09:26.116Z,2504
2019-03-28T09:10:24.114Z,2992
2019-03-28T09:11:26.435Z,3712
2019-03-28T09:12:24.424Z,3768
2019-03-28T09:13:24.445Z,3408
2019-03-28T09:14:24.722Z,3592
2019-03-28T09:15:24.762Z,3460
2019-03-28T09:16:24.492Z,3628
2019-03-28T09:17:26.079Z,3392
2019-03-28T09:18:24.012Z,2884
2019-03-28T09:19:24.558Z,2508
2019-03-28T09:20:24.048Z,2308
2019-03-28T09:21:24.081Z,1920
2019-03-28T09:22:24.100Z,1680
2019-03-28T09:23:24.632Z,1732
2019-03-28T09:24:24.653Z,1816
2019-03-28T09:25:24.670Z,1980
2019-03-28T09:26:24.954Z,2168
2019-03-28T09:27:24.712Z,2336
2019-03-28T09:28:24.474Z,2560
2019-03-28T09:29:24.746Z,2576
2019-03-28T09:30:24.768Z,2632
2019-03-28T09:31:27.114Z,2724
2019-03-28T09:32:24.278Z,2872
2019-03-28T09:33:24.560Z,2940
2019-03-28T09:34:24.584Z,3000
2019-03-28T09:35:24.885Z,2880
2019-03-28T09:36:24.686Z,2336
2019-03-28T09:37:24.901Z,2220
2019-03-28T09:38:24.692Z,2396
2019-03-28T09:39:27.098Z,2620
2019-03-28T09:40:24.964Z,2712
2019-03-28T09:41:24.982Z,2904
2019-03-28T09:42:25.012Z,3040
2019-03-28T09:43:25.027Z,2944
2019-03-28T09:44:25.299Z,2708
2019-03-28T09:45:24.809Z,2628
2019-03-28T09:46:25.084Z,2828
2019-03-28T09:47:25.369Z,3196
2019-03-28T09:48:24.595Z,3152
2019-03-28T09:49:25.155Z,2508
2019-03-28T09:50:25.244Z,2452
2019-03-28T09:51:24.667Z,2980
2019-03-28T09:52:25.203Z,3344
2019-03-28T09:53:25.212Z,3684
2019-03-28T09:54:25.237Z,3700
2019-03-28T09:55:25.579Z,4216
2019-03-28T09:56:25.009Z,4924
2019-03-28T09:57:25.305Z,5332
2019-03-28T09:58:25.133Z,5048
2019-03-28T09:59:25.081Z,4588
2019-03-28T10:00:24.844Z,4068
2019-03-28T10:01:24.843Z,3540
2019-03-28T10:02:25.132Z,3128
2019-03-28T10:03:25.417Z,2688
2019-03-28T10:04:25.433Z,2528
2019-03-28T10:05:25.185Z,2344
2019-03-28T10:06:25.206Z,2272
2019-03-28T10:07:25.230Z,2252
2019-03-28T10:08:24.986Z,2308
2019-03-28T10:09:25.534Z,2512
2019-03-28T10:10:25.550Z,2676
2019-03-28T10:11:25.574Z,2788
2019-03-28T10:12:25.594Z,2636
2019-03-28T10:13:25.081Z,2412
2019-03-28T10:14:25.627Z,2260
2019-03-28T10:15:25.391Z,2160
2019-03-28T10:16:25.439Z,2068
2019-03-28T10:17:25.698Z,1952
2019-03-28T10:18:25.704Z,1888
2019-03-28T10:19:25.482Z,1784
2019-03-28T10:20:25.228Z,1664
2019-03-28T10:21:25.500Z,1580
2019-03-28T10:22:27.271Z,1500
2019-03-28T10:23:25.544Z,1392
2019-03-28T10:24:25.567Z,1284
2019-03-28T10:25:25.596Z,1200
2019-03-28T10:26:25.339Z,1148
2019-03-28T10:27:25.900Z,1128
2019-03-28T10:28:25.909Z,1148
2019-03-28T10:29:25.397Z,1188
2019-03-28T10:30:26.309Z,1272
2019-03-28T10:31:25.962Z,1392
2019-03-28T10:32:25.461Z,1484
2019-03-28T10:33:27.050Z,1516
2019-03-28T10:34:26.031Z,1528
2019-03-28T10:35:25.788Z,1596
2019-03-28T10:36:27.804Z,1768
2019-03-28T10:37:25.825Z,2008
2019-03-28T10:38:25.896Z,2288
2019-03-28T10:39:26.409Z,2388
2019-03-28T10:40:25.886Z,2384
2019-03-28T10:41:28.874Z,2332
2019-03-28T10:42:26.187Z,2280
2019-03-28T10:43:25.952Z,2288
2019-03-28T10:44:25.959Z,2336
2019-03-28T10:45:26.247Z,2424
2019-03-28T10:46:26.288Z,2528
2019-03-28T10:47:27.281Z,2640
2019-03-28T10:48:28.192Z,2736
2019-03-28T10:49:25.798Z,2796
2019-03-28T10:50:39.790Z,2804
2019-03-28T10:51:26.418Z,2856
2019-03-28T10:52:26.466Z,3004
2019-03-28T10:53:26.138Z,3220
2019-03-28T10:54:30.440Z,3488
2019-03-28T10:55:26.188Z,3700
2019-03-28T10:56:29.697Z,3948
2019-03-28T10:57:37.520Z,4276
2019-03-28T10:58:27.171Z,4488
2019-03-28T10:59:30.375Z,4696
2019-03-28T11:00:30.783Z,4760
2019-03-28T11:01:55.121Z,4800
2019-03-28T11:02:28.719Z,4836
2019-03-28T11:03:26.333Z,4940
2019-03-28T11:04:27.516Z,5036
2019-03-28T11:05:26.111Z,5080
2019-03-28T11:06:26.657Z,5044
2019-03-28T11:07:26.853Z,5016
2019-03-28T11:08:26.706Z,5060
2019-03-28T11:09:26.457Z,5116
2019-03-28T11:10:27.030Z,5164
2019-03-28T11:11:27.587Z,5188
2019-03-28T11:12:26.778Z,5128
2019-03-28T11:13:26.800Z,5092
2019-03-28T11:14:26.309Z,5112
2019-03-28T11:15:26.839Z,5040
2019-03-28T11:16:26.627Z,4932
2019-03-28T11:17:26.622Z,4880
2019-03-28T11:18:26.901Z,4912
2019-03-28T11:19:27.183Z,4992
2019-03-28T11:20:26.413Z,5024
2019-03-28T11:21:26.721Z,5036
2019-03-28T11:22:26.452Z,5052
2019-03-28T11:23:27.001Z,5032
2019-03-28T11:24:27.285Z,5076
2019-03-28T11:25:27.069Z,5144
2019-03-28T11:26:27.059Z,5104
2019-03-28T11:27:26.600Z,4896
2019-03-28T11:28:30.520Z,4496
2019-03-28T11:29:27.170Z,4100
2019-03-28T11:30:27.896Z,3740
2019-03-28T11:31:27.171Z,3612
2019-03-28T11:32:26.754Z,3756
2019-03-28T11:33:26.803Z,3924
2019-03-28T11:34:27.497Z,3648
2019-03-28T11:35:27.343Z,3436
2019-03-28T11:36:27.854Z,3368
2019-03-28T11:37:33.099Z,3200
2019-03-28T11:38:27.390Z,2996
2019-03-28T11:39:28.163Z,2776
2019-03-28T11:40:29.476Z,2672
2019-03-28T11:41:26.918Z,2704
2019-03-28T11:42:27.808Z,2840
2019-03-28T11:43:27.484Z,2920
2019-03-28T11:44:27.432Z,2940
2019-03-28T11:45:29.308Z,2960
2019-03-28T11:46:26.943Z,2948
2019-03-28T11:47:29.084Z,2912
2019-03-28T11:48:27.251Z,2892
2019-03-28T11:49:27.533Z,2836
2019-03-28T11:50:27.559Z,2740
2019-03-28T11:51:27.311Z,2652
2019-03-28T11:52:27.699Z,2564
2019-03-28T11:53:27.362Z,2460
2019-03-28T11:54:27.632Z,2324
2019-03-28T11:55:27.653Z,2260
2019-03-28T11:56:27.411Z,2240
2019-03-28T11:57:27.432Z,2228
2019-03-28T11:58:27.193Z,2232
2019-03-28T11:59:27.735Z,2220
2019-03-28T12:00:27.754Z,2200
2019-03-28T12:01:28.015Z,2160
2019-03-28T12:02:29.943Z,2088
2019-03-28T12:03:27.824Z,1996
2019-03-28T12:04:27.312Z,1852
2019-03-28T12:05:27.605Z,1720
2019-03-28T12:06:27.616Z,1692
2019-03-28T12:07:27.896Z,1768
2019-03-28T12:08:27.921Z,1872
2019-03-28T12:09:27.938Z,1996
2019-03-28T12:10:27.964Z,2088
2019-03-28T12:11:27.718Z,2096
2019-03-28T12:12:28.263Z,2132
2019-03-28T12:13:27.494Z,2200
2019-03-28T12:14:27.776Z,2276
2019-03-28T12:15:28.086Z,2348
2019-03-28T12:16:27.818Z,2440
2019-03-28T12:17:27.850Z,2536
2019-03-28T12:18:29.794Z,2620
2019-03-28T12:19:27.720Z,2700
2019-03-28T12:20:27.635Z,2772
2019-03-28T12:21:28.199Z,2832
2019-03-28T12:22:27.953Z,2856
2019-03-28T12:23:28.894Z,2888
2019-03-28T12:24:28.530Z,2952
2019-03-28T12:25:28.266Z,3016
2019-03-28T12:26:28.054Z,3024
2019-03-28T12:27:28.314Z,3000
2019-03-28T12:28:27.799Z,2948
2019-03-28T12:29:28.652Z,2932
2019-03-28T12:30:27.870Z,2952
2019-03-28T12:31:28.128Z,2984
2019-03-28T12:32:28.139Z,3004
2019-03-28T12:33:27.903Z,3020
2019-03-28T12:34:28.449Z,3040
2019-03-28T12:35:28.222Z,3032
2019-03-28T12:36:28.483Z,3024
2019-03-28T12:37:28.498Z,3020
2019-03-28T12:38:28.724Z,3028
2019-03-28T12:39:28.281Z,3024
2019-03-28T12:40:28.570Z,3036
2019-03-28T12:41:28.326Z,3056
2019-03-28T12:42:28.344Z,3072
2019-03-28T12:43:28.636Z,3052
2019-03-28T12:44:28.126Z,3024
2019-03-28T12:45:28.902Z,3000
2019-03-28T12:46:30.418Z,2980
2019-03-28T12:47:41.490Z,2924
2019-03-28T12:48:28.504Z,2832
2019-03-28T12:49:28.488Z,2732
2019-03-28T12:50:28.847Z,2644
2019-03-28T12:51:29.356Z,2600
2019-03-28T12:52:31.926Z,2600
2019-03-28T12:53:28.834Z,2612
2019-03-28T12:54:28.569Z,2636
2019-03-28T12:55:28.871Z,2644
2019-03-28T12:56:31.322Z,2624
2019-03-28T12:57:29.175Z,2596
2019-03-28T12:58:28.993Z,2572
2019-03-28T12:59:28.958Z,2552
2019-03-28T13:00:28.716Z,2524
2019-03-28T13:01:29.463Z,2516
2019-03-28T13:02:36.733Z,2548
2019-03-28T13:03:44.702Z,2608
2019-03-28T13:04:28.790Z,2676
2019-03-28T13:05:29.350Z,2728
2019-03-28T13:06:28.582Z,2736
2019-03-28T13:07:28.852Z,2700
2019-03-28T13:08:28.606Z,2652
2019-03-28T13:09:30.701Z,2624
2019-03-28T13:10:29.605Z,2616
2019-03-28T13:11:28.931Z,2600
2019-03-28T13:12:28.955Z,2568
2019-03-28T13:13:29.646Z,2528
2019-03-28T13:14:31.260Z,2484
2019-03-28T13:15:28.755Z,2432
2019-03-28T13:16:29.033Z,2412
2019-03-28T13:17:28.791Z,2408
2019-03-28T13:18:29.339Z,2400
2019-03-28T13:19:29.095Z,2392
2019-03-28T13:20:29.297Z,2376
2019-03-28T13:21:28.890Z,2340
2019-03-28T13:22:29.428Z,2292
2019-03-28T13:23:29.186Z,2228
2019-03-28T13:24:29.522Z,2160
2019-03-28T13:25:29.226Z,2108
2019-03-28T13:26:29.253Z,2072
2019-03-28T13:27:29.260Z,2060
2019-03-28T13:28:31.032Z,2080
2019-03-28T13:29:29.568Z,2096
2019-03-28T13:30:29.066Z,2100
2019-03-28T13:31:29.344Z,2100
2019-03-28T13:32:43.475Z,2128
2019-03-28T13:33:29.651Z,2148
2019-03-28T13:34:29.667Z,2168
2019-03-28T13:35:29.165Z,2192
2019-03-28T13:36:29.709Z,2216
2019-03-28T13:37:29.993Z,2252
2019-03-28T13:38:29.488Z,2332
2019-03-28T13:39:29.853Z,2448
2019-03-28T13:40:29.794Z,2552
2019-03-28T13:41:29.845Z,2604
2019-03-28T13:42:30.352Z,2596
2019-03-28T13:43:30.579Z,2568
2019-03-28T13:44:32.463Z,2540
2019-03-28T13:45:29.366Z,2544
2019-03-28T13:46:29.403Z,2552
2019-03-28T13:47:29.670Z,2528
2019-03-28T13:48:29.954Z,2464
2019-03-28T13:49:30.028Z,2416
2019-03-28T13:50:29.730Z,2384
2019-03-28T13:51:30.022Z,2400
2019-03-28T13:52:30.042Z,2456